createdAt,value
2022-10-20T03:52:55.550Z,7.85
2022-10-20T03:55:28.418Z,8.07
2022-10-20T03:58:01.026Z,10.27
2022-10-20T04:00:33.924Z,10.83
2022-10-20T04:03:06.511Z,12.60
2022-10-20T04:05:39.369Z,8.90
2022-10-20T04:08:12.128Z,12.93
2022-10-20T04:10:44.907Z,9.07
2022-10-20T04:13:17.467Z,7.95
2022-10-20T04:15:50.374Z,18.17
2022-10-20T04:18:22.916Z,8.13
2022-10-20T04:20:55.706Z,10.38
2022-10-20T04:23:28.219Z,12.23
2022-10-20T04:26:01.363Z,8.33
2022-10-20T04:28:33.848Z,9.10
2022-10-20T04:31:07.051Z,9.55
2022-10-20T04:33:39.534Z,10.63
2022-10-20T04:36:12.888Z,9.82
2022-10-20T04:38:45.485Z,10.02
2022-10-20T04:41:18.376Z,12.38
2022-10-20T04:43:52.379Z,9.60
2022-10-20T04:46:27.045Z,15.38
2022-10-20T04:48:59.785Z,16.08
2022-10-20T04:51:32.580Z,16.55
2022-10-20T04:56:57.686Z,16.08
2022-10-20T04:59:30.146Z,14.88
2022-10-20T05:02:03.613Z,7.95
2022-10-20T05:04:50.216Z,10.85
2022-10-20T05:07:25.232Z,10.98
2022-10-20T05:10:05.666Z,12.55
2022-10-20T05:12:45.051Z,10.77
2022-10-20T05:15:23.888Z,8.40
2022-10-20T05:18:10.215Z,11.65
2022-10-20T05:21:07.109Z,14.13
2022-10-20T05:23:40.547Z,20.00
2022-10-20T05:26:14.233Z,14.43
2022-10-20T05:28:48.806Z,16.25
2022-10-20T05:31:22.747Z,16.00
2022-10-20T05:33:56.737Z,13.60
2022-10-20T05:36:29.625Z,13.30
2022-10-20T05:39:02.395Z,20.27
2022-10-20T05:41:38.078Z,18.70
2022-10-20T05:44:13.423Z,11.13
2022-10-20T05:46:45.910Z,12.57
2022-10-20T05:49:18.753Z,12.83
2022-10-20T05:51:51.291Z,14.63
2022-10-20T05:54:24.203Z,25.90
2022-10-20T05:56:56.718Z,230.65
2022-10-20T05:59:29.575Z,206.77
2022-10-20T06:02:02.127Z,151.45
2022-10-20T06:04:35.008Z,74.47
2022-10-20T06:07:10.211Z,40.70
2022-10-20T06:09:43.564Z,40.10
2022-10-20T06:12:16.270Z,43.28
2022-10-20T06:14:49.098Z,27.87
2022-10-20T06:17:21.659Z,32.70
2022-10-20T06:19:54.589Z,28.98
2022-10-20T06:22:27.178Z,29.25
2022-10-20T06:24:59.899Z,28.55
2022-10-20T06:27:32.389Z,25.88
2022-10-20T06:30:05.387Z,26.75
2022-10-20T06:32:38.516Z,26.25
2022-10-20T06:35:11.582Z,25.83
2022-10-20T06:37:44.046Z,13.55
2022-10-20T06:40:17.519Z,11.20
2022-10-20T06:42:50.212Z,11.65
2022-10-20T06:45:23.032Z,23.73
2022-10-20T06:47:55.678Z,12.25
2022-10-20T06:50:28.473Z,16.95
2022-10-20T06:53:01.089Z,14.60
2022-10-20T06:55:33.934Z,14.65
2022-10-20T06:58:06.464Z,19.70
2022-10-20T07:00:39.232Z,23.42
2022-10-20T07:03:11.755Z,23.65
2022-10-20T07:05:44.715Z,18.43
2022-10-20T07:08:17.236Z,19.55
2022-10-20T07:11:19.113Z,16.35
2022-10-20T07:13:52.030Z,17.30
2022-10-20T07:16:26.634Z,20.25
2022-10-20T07:18:59.276Z,18.85
2022-10-20T07:21:35.926Z,21.87
2022-10-20T07:24:10.673Z,21.45
2022-10-20T07:26:43.513Z,31.15
2022-10-20T07:29:16.050Z,27.27
2022-10-20T07:31:48.958Z,19.48
2022-10-20T07:34:26.887Z,20.63
2022-10-20T07:37:01.018Z,22.95
2022-10-20T07:39:33.787Z,24.42
2022-10-20T07:42:06.618Z,20.25
2022-10-20T07:44:39.193Z,24.60
2022-10-20T07:47:12.026Z,15.40
2022-10-20T07:49:45.100Z,17.92
2022-10-20T07:52:18.796Z,16.80
2022-10-20T07:54:58.000Z,16.10
2022-10-20T07:57:39.347Z,16.95
2022-10-20T08:00:12.200Z,14.45
2022-10-20T08:02:47.207Z,14.18
2022-10-20T08:05:19.658Z,21.13
2022-10-20T08:07:52.619Z,14.23
2022-10-20T08:10:25.386Z,15.57
2022-10-20T08:12:58.463Z,15.93
2022-10-20T08:15:33.036Z,26.60
2022-10-20T08:18:05.917Z,15.33
2022-10-20T08:20:39.810Z,12.25
2022-10-20T08:23:13.434Z,16.73
2022-10-20T08:25:45.967Z,16.10
2022-10-20T08:28:21.170Z,14.88
2022-10-20T08:30:56.044Z,10.03
2022-10-20T08:33:28.903Z,13.77
2022-10-20T08:36:04.365Z,12.30
2022-10-20T08:38:37.643Z,12.32
2022-10-20T08:41:18.449Z,12.70
2022-10-20T08:43:52.405Z,14.13
2022-10-20T08:46:28.697Z,12.93
2022-10-20T08:49:02.235Z,12.45
2022-10-20T08:51:38.623Z,13.40
2022-10-20T08:54:13.093Z,9.13
2022-10-20T08:56:46.847Z,13.80
2022-10-20T08:59:25.990Z,13.25
2022-10-20T09:01:58.670Z,10.50
2022-10-20T09:04:35.436Z,14.90
2022-10-20T09:07:24.446Z,10.10
2022-10-20T09:10:02.751Z,13.23
2022-10-20T09:12:36.296Z,16.02
2022-10-20T09:15:12.570Z,14.65
2022-10-20T09:17:49.199Z,16.67
2022-10-20T09:20:27.071Z,14.85
2022-10-20T09:23:01.323Z,16.23
2022-10-20T09:25:37.042Z,14.90
2022-10-20T09:28:17.840Z,17.50
2022-10-20T09:30:50.940Z,16.48
2022-10-20T09:33:31.052Z,14.73
2022-10-20T09:36:03.891Z,15.90
2022-10-20T09:38:36.846Z,14.77
2022-10-20T09:41:10.663Z,17.60
2022-10-20T09:43:50.012Z,13.35
2022-10-20T09:46:28.868Z,13.98
2022-10-20T09:49:01.333Z,14.48
2022-10-20T09:51:34.748Z,13.68
2022-10-20T09:54:08.453Z,14.50
2022-10-20T09:56:43.108Z,11.10
2022-10-20T09:59:23.191Z,11.07
2022-10-20T10:01:57.686Z,12.13
2022-10-20T10:04:35.409Z,12.57
2022-10-20T10:07:32.622Z,11.93
2022-10-20T10:10:22.312Z,9.55
2022-10-20T10:12:57.035Z,10.93
2022-10-20T10:15:30.020Z,8.35
2022-10-20T10:18:13.051Z,8.15
2022-10-20T10:20:45.671Z,10.70
2022-10-20T10:23:28.404Z,8.02
2022-10-20T10:26:03.137Z,7.22
2022-10-20T10:28:38.329Z,7.82
2022-10-20T10:31:11.130Z,7.75
2022-10-20T10:33:45.737Z,10.25
2022-10-20T10:36:37.089Z,8.38
2022-10-20T10:39:14.057Z,8.10
2022-10-20T10:41:46.925Z,11.38
2022-10-20T10:44:22.908Z,10.33
2022-10-20T10:47:02.568Z,9.77
2022-10-20T10:49:38.258Z,10.68
2022-10-20T10:52:10.740Z,13.82
2022-10-20T10:55:02.266Z,8.73
2022-10-20T10:57:53.652Z,12.88
2022-10-20T11:00:36.433Z,14.35
2022-10-20T11:03:36.243Z,12.40
2022-10-20T11:06:40.000Z,10.90
2022-10-20T11:09:23.781Z,10.30
2022-10-20T11:11:56.954Z,12.23
2022-10-20T11:14:32.224Z,10.63
2022-10-20T11:17:17.246Z,11.05
2022-10-20T11:22:29.054Z,9.48
2022-10-20T11:25:20.391Z,13.23
2022-10-20T11:27:52.832Z,11.35
2022-10-20T11:30:27.739Z,8.80
2022-10-20T11:33:13.391Z,13.00
2022-10-20T11:35:46.769Z,9.65
2022-10-20T11:38:19.241Z,8.25
2022-10-20T11:41:06.617Z,6.35
2022-10-20T11:43:46.630Z,7.80
2022-10-20T11:46:28.177Z,10.90
2022-10-20T12:13:55.390Z,16.67
2022-10-20T12:16:46.978Z,13.02
2022-10-20T12:19:21.710Z,13.40
2022-10-20T12:21:57.563Z,14.20
2022-10-20T12:34:49.927Z,10.25
2022-10-20T12:37:36.421Z,11.07
2022-10-20T12:40:13.854Z,9.15
2022-10-20T12:42:49.122Z,9.75
2022-10-20T12:45:37.961Z,11.63
2022-10-20T12:48:19.871Z,8.27
2022-10-20T12:50:52.960Z,9.07
2022-10-20T12:53:27.449Z,8.87
2022-10-20T12:56:01.705Z,9.77
2022-10-20T12:58:38.250Z,7.57
2022-10-20T13:01:12.107Z,7.07
2022-10-20T13:03:47.711Z,7.93
2022-10-20T13:06:24.083Z,7.90
2022-10-20T13:09:03.539Z,14.45
2022-10-20T13:11:41.196Z,10.30
2022-10-20T13:14:14.100Z,5.00
2022-10-20T13:17:02.212Z,9.02
2022-10-20T13:19:38.168Z,6.45
2022-10-20T13:22:47.017Z,6.50
2022-10-20T13:25:40.643Z,7.25
2022-10-20T13:28:13.222Z,8.82
2022-10-20T13:30:55.532Z,7.55
2022-10-20T13:33:51.561Z,5.68
2022-10-20T13:36:38.029Z,7.18
2022-10-20T13:39:29.167Z,7.55
2022-10-20T13:42:08.091Z,9.87
2022-10-20T13:44:57.937Z,6.55
2022-10-20T13:47:49.672Z,7.40
2022-10-20T13:50:49.142Z,6.00
2022-10-20T13:53:22.788Z,7.68
2022-10-20T13:55:58.567Z,8.02
2022-10-20T13:58:31.453Z,6.40
2022-10-20T14:01:14.320Z,7.38
2022-10-20T14:03:47.805Z,6.93
2022-10-20T14:06:29.451Z,5.68
2022-10-20T14:09:19.548Z,6.10
2022-10-20T14:12:19.079Z,4.18
2022-10-20T14:15:06.817Z,5.30
2022-10-20T14:17:40.844Z,3.25
2022-10-20T14:20:21.008Z,5.82
2022-10-20T14:22:54.209Z,6.63
2022-10-20T14:25:27.685Z,5.95
2022-10-20T14:28:05.131Z,6.22
2022-10-20T14:30:41.308Z,5.57
2022-10-20T14:33:16.707Z,5.25
2022-10-20T14:35:54.397Z,32.90
2022-10-20T14:38:32.673Z,62.65
2022-10-20T14:41:07.529Z,19.83
2022-10-20T14:43:42.024Z,31.00
2022-10-20T14:46:24.021Z,5.03
2022-10-20T14:48:58.751Z,7.22
2022-10-20T14:51:38.622Z,5.10
2022-10-20T14:54:20.289Z,9.23
2022-10-20T14:56:54.828Z,8.48
2022-10-20T14:59:29.274Z,8.85
2022-10-20T15:02:02.996Z,9.00
2022-10-20T15:04:36.451Z,6.28
2022-10-20T15:07:13.728Z,5.47
2022-10-20T15:09:50.855Z,7.22
2022-10-20T15:12:43.912Z,6.83
2022-10-20T15:15:19.107Z,7.23
2022-10-20T15:18:12.303Z,8.88
2022-10-20T15:20:48.727Z,7.00
2022-10-20T15:23:25.954Z,6.72
2022-10-20T15:26:01.749Z,15.18
2022-10-20T15:28:36.955Z,21.35
2022-10-20T15:31:23.357Z,10.40
2022-10-20T15:33:58.120Z,9.57
2022-10-20T15:36:41.737Z,24.05
2022-10-20T15:39:15.686Z,21.30
2022-10-20T15:41:50.328Z,18.58
2022-10-20T15:44:27.092Z,20.35
2022-10-20T15:46:59.636Z,16.73
2022-10-20T15:49:32.482Z,17.60
2022-10-20T15:52:05.145Z,14.70
2022-10-20T15:54:37.925Z,34.45
2022-10-20T15:57:10.743Z,26.13
2022-10-20T15:59:43.714Z,20.70
2022-10-20T16:02:16.603Z,13.10
2022-10-20T16:04:49.596Z,14.05
2022-10-20T16:07:22.061Z,14.25
2022-10-20T16:09:54.905Z,11.30
2022-10-20T16:12:27.513Z,14.53
2022-10-20T16:15:00.464Z,12.00
2022-10-20T16:17:33.105Z,8.77
2022-10-20T16:20:07.729Z,9.02
2022-10-20T16:22:40.504Z,6.38
2022-10-20T16:25:14.730Z,6.32
2022-10-20T16:27:47.539Z,10.32
2022-10-20T16:30:20.482Z,8.15
2022-10-20T16:32:53.228Z,9.43
2022-10-20T16:35:26.356Z,6.65
2022-10-20T16:37:58.983Z,7.97
2022-10-20T16:40:31.880Z,7.15
2022-10-20T16:43:04.372Z,7.63
2022-10-20T16:45:39.311Z,7.88
2022-10-20T16:48:12.965Z,4.23
2022-10-20T16:50:45.871Z,4.53
2022-10-20T16:53:18.470Z,5.95
2022-10-20T16:55:55.605Z,6.53
2022-10-20T16:58:28.667Z,5.87
2022-10-20T17:01:04.231Z,6.43
2022-10-20T17:04:49.991Z,7.28
2022-10-20T17:07:22.856Z,5.95
2022-10-20T17:09:55.730Z,5.82
2022-10-20T17:12:28.606Z,6.78
2022-10-20T17:15:01.118Z,10.18
2022-10-20T17:17:34.566Z,7.80
2022-10-20T17:20:07.654Z,11.68
2022-10-20T17:22:40.579Z,11.07
2022-10-20T17:25:13.080Z,19.37
2022-10-20T17:27:45.838Z,11.70
2022-10-20T17:30:18.725Z,14.95
2022-10-20T17:32:51.669Z,14.77
2022-10-20T17:35:24.301Z,19.90
2022-10-20T17:37:58.985Z,16.50
2022-10-20T17:40:38.350Z,13.88
2022-10-20T17:43:11.294Z,17.42
2022-10-20T17:45:43.989Z,16.83
2022-10-20T17:48:17.002Z,17.85
2022-10-20T17:50:58.374Z,15.77
2022-10-20T17:53:31.961Z,16.70
2022-10-20T17:56:06.224Z,14.60
2022-10-20T17:58:39.596Z,15.43
2022-10-20T18:01:18.184Z,15.90
2022-10-20T18:03:58.181Z,15.80
2022-10-20T18:06:34.357Z,16.30
2022-10-20T18:09:11.251Z,14.30
2022-10-20T18:11:45.824Z,15.23
2022-10-20T18:14:18.638Z,12.55
2022-10-20T18:16:51.505Z,14.63
2022-10-20T18:19:24.389Z,20.77
2022-10-20T18:21:57.229Z,21.50
2022-10-20T18:24:30.139Z,24.63
2022-10-20T18:27:02.772Z,17.73
2022-10-20T18:29:35.931Z,15.25
2022-10-20T18:32:08.480Z,14.20
2022-10-20T18:34:43.785Z,15.10
2022-10-20T18:37:18.249Z,18.52
2022-10-20T18:39:51.796Z,28.30
2022-10-20T18:42:24.208Z,16.50
2022-10-20T18:44:57.088Z,13.98
2022-10-20T18:47:29.592Z,15.00
2022-10-20T18:50:02.511Z,11.73
2022-10-20T18:52:35.270Z,15.05
2022-10-20T18:55:09.669Z,11.38
2022-10-20T18:57:42.541Z,12.30
2022-10-20T19:00:15.566Z,11.40
2022-10-20T19:02:50.534Z,10.48
2022-10-20T19:05:23.349Z,13.18
2022-10-20T19:07:55.901Z,12.60
2022-10-20T19:10:28.731Z,18.17
2022-10-20T19:13:01.363Z,12.70
2022-10-20T19:15:34.294Z,11.45
2022-10-20T19:18:07.023Z,15.07
2022-10-20T19:20:39.861Z,13.32
2022-10-20T19:23:12.400Z,15.35
2022-10-20T19:25:45.245Z,15.55
2022-10-20T19:28:18.028Z,13.82
2022-10-20T19:30:51.012Z,13.07
2022-10-20T19:33:24.117Z,16.27
2022-10-20T19:35:56.957Z,17.05
2022-10-20T19:38:29.459Z,17.88
2022-10-20T19:41:02.525Z,18.65
2022-10-20T19:43:35.647Z,12.68
2022-10-20T19:46:09.342Z,16.85
2022-10-20T19:48:42.497Z,14.02
2022-10-20T19:51:16.641Z,18.92
2022-10-20T19:53:49.841Z,12.77
2022-10-20T19:56:22.665Z,12.18
2022-10-20T19:58:55.310Z,15.10
2022-10-20T20:01:28.600Z,17.27
2022-10-20T20:04:01.368Z,13.63
2022-10-20T20:06:34.981Z,15.77
2022-10-20T20:09:09.252Z,12.30
2022-10-20T20:11:42.158Z,13.10
2022-10-20T20:14:16.714Z,13.90
2022-10-20T20:16:49.757Z,11.43
2022-10-20T20:19:22.431Z,15.30
2022-10-20T20:21:55.299Z,13.23
2022-10-20T20:24:27.843Z,15.75
2022-10-20T20:27:00.668Z,15.45
2022-10-20T20:29:33.164Z,16.17
2022-10-20T20:32:06.187Z,13.43
2022-10-20T20:34:38.923Z,14.63
2022-10-20T20:37:12.849Z,15.38
2022-10-20T20:39:45.429Z,13.47
2022-10-20T20:42:18.294Z,14.65
2022-10-20T20:44:52.620Z,11.98
2022-10-20T20:47:27.634Z,13.85
2022-10-20T20:50:00.978Z,11.07
2022-10-20T20:52:34.335Z,14.65
2022-10-20T20:55:06.962Z,16.77
2022-10-20T20:57:40.155Z,14.33
2022-10-20T21:00:13.073Z,14.90
2022-10-20T21:02:46.482Z,16.20
2022-10-20T21:05:19.121Z,13.18
2022-10-20T21:07:51.989Z,14.85
2022-10-20T21:10:24.547Z,13.30
2022-10-20T21:12:57.369Z,16.67
2022-10-20T21:15:29.910Z,13.45
2022-10-20T21:18:03.064Z,15.73
2022-10-20T21:20:35.629Z,16.10
2022-10-20T21:23:08.477Z,17.42
2022-10-20T21:25:45.678Z,13.25
2022-10-20T21:28:18.517Z,19.00
2022-10-20T21:30:51.219Z,10.68
2022-10-20T21:33:24.167Z,16.13
2022-10-20T21:36:00.788Z,16.53
2022-10-20T21:38:34.574Z,16.38
2022-10-20T21:41:08.479Z,16.77
2022-10-20T21:43:43.064Z,15.63
2022-10-20T21:46:19.855Z,16.77
2022-10-20T21:48:58.582Z,18.20
2022-10-20T21:51:38.624Z,17.38
2022-10-20T21:54:15.868Z,18.65
2022-10-20T21:56:48.660Z,20.52
2022-10-20T21:59:25.559Z,16.90
2022-10-20T22:01:59.389Z,17.02
2022-10-20T22:04:32.258Z,19.60
2022-10-20T22:07:04.781Z,13.50
2022-10-20T22:09:37.678Z,18.35
2022-10-20T22:12:10.355Z,20.35
2022-10-20T22:14:45.025Z,13.65
2022-10-20T22:17:21.538Z,19.60
2022-10-20T22:19:54.660Z,19.00
2022-10-20T22:22:31.172Z,15.48
2022-10-20T22:25:04.154Z,13.95
2022-10-20T22:27:42.342Z,17.48
2022-10-20T22:30:15.619Z,16.35
2022-10-20T22:32:48.324Z,14.65
2022-10-20T22:35:21.221Z,19.27
2022-10-20T22:37:53.737Z,17.00
2022-10-20T22:40:26.716Z,19.98
2022-10-20T22:42:59.261Z,14.55
2022-10-20T22:45:32.368Z,16.67
2022-10-20T22:48:04.883Z,16.30
2022-10-20T22:50:37.803Z,18.35
2022-10-20T22:53:11.164Z,21.13
2022-10-20T22:55:44.073Z,17.77
2022-10-20T22:58:16.750Z,16.38
2022-10-20T23:00:49.796Z,22.30
2022-10-20T23:03:22.342Z,21.63
2022-10-20T23:05:55.201Z,16.13
2022-10-20T23:08:30.660Z,17.65
2022-10-20T23:11:05.512Z,16.92
2022-10-20T23:13:38.319Z,19.05
2022-10-20T23:16:11.255Z,15.30
2022-10-20T23:18:43.975Z,18.35
2022-10-20T23:21:17.461Z,16.27
2022-10-20T23:23:50.264Z,17.73
2022-10-20T23:26:23.151Z,17.80
2022-10-20T23:28:55.670Z,20.80
2022-10-20T23:31:28.468Z,17.35
2022-10-20T23:34:00.928Z,22.10
2022-10-20T23:36:38.292Z,21.17
2022-10-20T23:39:12.028Z,20.60
2022-10-20T23:41:44.924Z,15.68
2022-10-20T23:44:17.415Z,16.67
2022-10-20T23:46:52.291Z,16.75
2022-10-20T23:49:24.943Z,16.58
2022-10-20T23:51:57.753Z,20.63
2022-10-20T23:54:30.198Z,20.07
2022-10-20T23:57:03.026Z,21.20
2022-10-20T23:59:35.669Z,24.27
